LPP3167 SAEZ-SAZM
Flight info
| Callsign | LPP3167 |
|---|---|
| Flight time | 0h 29m |
| Altitude | 23000 |
| Route | GBE1E GBE W29 VOTRA VOTRA2Q |
| Aircraft | B738/M-SDE2E3FGHIRWXY/LB1 |
Departure
| Time | 2026-04-22 01:03 |
|---|---|
| Airport | Ezeiza International Airport - Ministro Pistarini (SAEZ) |
Arrival
| Time | 2026-04-22 01:33 |
|---|---|
| Airport | Ástor Piazzola International Airport (SAZM) |
| Time | Latitude | Longitude | Altitude | Speed | Heading |
|---|---|---|---|---|---|
| 2026-04-22 01:03 | -34.94591 | -58.49806 | 4969 ft | 236 kts | 186° |
| 2026-04-22 01:03 | -35.04987 | -58.49536 | 7334 ft | 263 kts | 180° |
| 2026-04-22 01:03 | -35.07084 | -58.49288 | 7862 ft | 281 kts | 180° |
| 2026-04-22 01:04 | -35.43149 | -58.47854 | 14955 ft | 346 kts | 186° |
| 2026-04-22 01:05 | -35.57978 | -58.47242 | 17350 ft | 360 kts | 185° |
| 2026-04-22 01:05 | -35.73142 | -58.46549 | 19843 ft | 370 kts | 185° |
| 2026-04-22 01:05 | -35.89043 | -58.44784 | 21779 ft | 388 kts | 176° |
| 2026-04-22 01:05 | -36.04951 | -58.39534 | 23074 ft | 406 kts | 167° |
| 2026-04-22 01:06 | -36.15910 | -58.33867 | 23053 ft | 410 kts | 162° |
| 2026-04-22 01:06 | -36.18506 | -58.32575 | 22960 ft | 402 kts | 166° |
| 2026-04-22 01:06 | -36.21155 | -58.31466 | 22964 ft | 398 kts | 169° |
| 2026-04-22 01:06 | -36.23799 | -58.30490 | 22964 ft | 401 kts | 171° |
| 2026-04-22 01:07 | -36.25085 | -58.30043 | 22956 ft | 401 kts | 171° |
| 2026-04-22 01:07 | -36.26920 | -58.29423 | 22956 ft | 402 kts | 171° |
| 2026-04-22 01:07 | -36.27553 | -58.29212 | 22953 ft | 402 kts | 171° |
| 2026-04-22 01:07 | -36.30260 | -58.28321 | 22951 ft | 402 kts | 172° |
| 2026-04-22 01:08 | -36.32966 | -58.27436 | 22950 ft | 401 kts | 172° |
| 2026-04-22 01:08 | -36.35636 | -58.26564 | 22947 ft | 402 kts | 172° |
| 2026-04-22 01:08 | -36.38396 | -58.25662 | 22936 ft | 402 kts | 172° |
| 2026-04-22 01:08 | -36.41086 | -58.24777 | 22940 ft | 401 kts | 172° |
| 2026-04-22 01:09 | -36.43807 | -58.23882 | 22940 ft | 404 kts | 172° |
| 2026-04-22 01:09 | -36.46497 | -58.22994 | 22932 ft | 403 kts | 172° |
| 2026-04-22 01:09 | -36.49218 | -58.22094 | 22930 ft | 403 kts | 172° |
| 2026-04-22 01:09 | -36.51907 | -58.21207 | 22931 ft | 403 kts | 172° |
| 2026-04-22 01:10 | -36.54640 | -58.20303 | 22934 ft | 410 kts | 172° |
| 2026-04-22 01:10 | -36.57439 | -58.19381 | 22948 ft | 420 kts | 171° |
| 2026-04-22 01:10 | -36.60269 | -58.18442 | 22934 ft | 418 kts | 171° |
| 2026-04-22 01:10 | -36.63069 | -58.17506 | 22929 ft | 419 kts | 171° |
| 2026-04-22 01:11 | -36.65908 | -58.16555 | 22930 ft | 420 kts | 171° |
| 2026-04-22 01:11 | -36.68735 | -58.15609 | 22928 ft | 421 kts | 171° |
| 2026-04-22 01:11 | -36.71556 | -58.14666 | 22926 ft | 426 kts | 171° |
| 2026-04-22 01:11 | -36.74459 | -58.13701 | 22763 ft | 437 kts | 171° |
| 2026-04-22 01:12 | -36.77419 | -58.12714 | 22377 ft | 435 kts | 171° |
| 2026-04-22 01:12 | -36.80298 | -58.11742 | 21893 ft | 426 kts | 171° |
| 2026-04-22 01:12 | -36.83137 | -58.10781 | 21318 ft | 421 kts | 170° |
| 2026-04-22 01:12 | -36.85938 | -58.09833 | 20727 ft | 416 kts | 171° |
| 2026-04-22 01:13 | -36.88713 | -58.08897 | 20131 ft | 411 kts | 171° |
| 2026-04-22 01:13 | -36.91435 | -58.07981 | 19540 ft | 407 kts | 170° |
| 2026-04-22 01:13 | -36.94166 | -58.07061 | 18948 ft | 402 kts | 169° |
| 2026-04-22 01:13 | -36.96867 | -58.06150 | 18356 ft | 397 kts | 170° |
| 2026-04-22 01:14 | -36.99496 | -58.05266 | 17771 ft | 393 kts | 169° |
| 2026-04-22 01:14 | -37.02134 | -58.04378 | 17186 ft | 388 kts | 169° |
| 2026-04-22 01:14 | -37.04713 | -58.03508 | 16615 ft | 384 kts | 169° |
| 2026-04-22 01:14 | -37.07333 | -58.02649 | 16034 ft | 392 kts | 171° |
| 2026-04-22 01:15 | -37.09997 | -58.01941 | 15435 ft | 397 kts | 173° |
| 2026-04-22 01:15 | -37.12698 | -58.01343 | 14838 ft | 392 kts | 174° |
| 2026-04-22 01:15 | -37.15369 | -58.00797 | 14250 ft | 386 kts | 174° |
| 2026-04-22 01:15 | -37.18010 | -58.00261 | 13667 ft | 379 kts | 174° |
| 2026-04-22 01:16 | -37.20585 | -57.99726 | 13101 ft | 373 kts | 173° |
| 2026-04-22 01:16 | -37.23123 | -57.99185 | 12386 ft | 367 kts | 172° |
| 2026-04-22 01:16 | -37.25573 | -57.98649 | 11910 ft | 353 kts | 172° |
| 2026-04-22 01:16 | -37.27981 | -57.98111 | 11424 ft | 342 kts | 171° |
| 2026-04-22 01:17 | -37.30283 | -57.97591 | 11054 ft | 333 kts | 171° |
| 2026-04-22 01:17 | -37.32539 | -57.97081 | 10596 ft | 331 kts | 171° |
| 2026-04-22 01:17 | -37.34813 | -57.96569 | 10114 ft | 326 kts | 171° |
| 2026-04-22 01:17 | -37.37000 | -57.96076 | 9676 ft | 316 kts | 171° |
| 2026-04-22 01:18 | -37.39121 | -57.95597 | 9238 ft | 308 kts | 170° |
| 2026-04-22 01:18 | -37.41215 | -57.95124 | 8789 ft | 301 kts | 170° |
| 2026-04-22 01:18 | -37.43259 | -57.94663 | 8362 ft | 293 kts | 170° |
| 2026-04-22 01:18 | -37.45219 | -57.94220 | 7997 ft | 284 kts | 169° |
| 2026-04-22 01:19 | -37.47135 | -57.93789 | 7636 ft | 276 kts | 169° |
| 2026-04-22 01:19 | -37.48994 | -57.93374 | 7291 ft | 264 kts | 169° |
| 2026-04-22 01:19 | -37.50777 | -57.92976 | 6906 ft | 255 kts | 168° |
| 2026-04-22 01:19 | -37.52486 | -57.92592 | 6533 ft | 247 kts | 168° |
| 2026-04-22 01:20 | -37.54151 | -57.92217 | 6159 ft | 239 kts | 169° |
| 2026-04-22 01:20 | -37.55788 | -57.91850 | 5782 ft | 233 kts | 168° |
| 2026-04-22 01:20 | -37.57343 | -57.91500 | 5417 ft | 226 kts | 167° |
| 2026-04-22 01:20 | -37.58870 | -57.91156 | 5065 ft | 218 kts | 167° |
| 2026-04-22 01:21 | -37.60328 | -57.90823 | 4804 ft | 206 kts | 166° |
| 2026-04-22 01:21 | -37.61731 | -57.90541 | 4537 ft | 198 kts | 167° |
| 2026-04-22 01:21 | -37.63046 | -57.90252 | 4304 ft | 191 kts | 167° |
| 2026-04-22 01:21 | -37.64340 | -57.89974 | 4036 ft | 187 kts | 165° |
| 2026-04-22 01:22 | -37.65587 | -57.89666 | 3838 ft | 176 kts | 164° |
| 2026-04-22 01:22 | -37.66770 | -57.89373 | 3664 ft | 166 kts | 165° |
| 2026-04-22 01:22 | -37.67873 | -57.89122 | 3560 ft | 153 kts | 165° |
| 2026-04-22 01:22 | -37.68914 | -57.88900 | 3414 ft | 153 kts | 166° |
| 2026-04-22 01:23 | -37.69952 | -57.88704 | 3241 ft | 149 kts | 166° |
| 2026-04-22 01:23 | -37.70971 | -57.88468 | 3075 ft | 145 kts | 162° |
| 2026-04-22 01:23 | -37.71947 | -57.88187 | 2922 ft | 143 kts | 164° |
| 2026-04-22 01:23 | -37.72931 | -57.88005 | 2749 ft | 142 kts | 168° |
| 2026-04-22 01:24 | -37.73916 | -57.87800 | 2579 ft | 142 kts | 163° |
| 2026-04-22 01:24 | -37.74867 | -57.87546 | 2423 ft | 136 kts | 166° |
| 2026-04-22 01:24 | -37.75777 | -57.87353 | 2415 ft | 134 kts | 164° |
| 2026-04-22 01:24 | -37.76694 | -57.87088 | 2440 ft | 136 kts | 160° |
| 2026-04-22 01:25 | -37.77602 | -57.86642 | 2407 ft | 139 kts | 145° |
| 2026-04-22 01:25 | -37.78301 | -57.85818 | 2435 ft | 140 kts | 132° |
| 2026-04-22 01:25 | -37.78977 | -57.84943 | 2292 ft | 138 kts | 132° |
| 2026-04-22 01:25 | -37.79604 | -57.84067 | 2142 ft | 132 kts | 126° |
| 2026-04-22 01:26 | -37.80130 | -57.83105 | 1965 ft | 131 kts | 123° |
| 2026-04-22 01:26 | -37.80660 | -57.82167 | 1770 ft | 130 kts | 124° |
| 2026-04-22 01:26 | -37.81176 | -57.81243 | 1667 ft | 124 kts | 124° |
| 2026-04-22 01:26 | -37.81663 | -57.80370 | 1698 ft | 132 kts | 124° |
| 2026-04-22 01:27 | -37.82148 | -57.79442 | 1714 ft | 124 kts | 123° |
| 2026-04-22 01:27 | -37.82634 | -57.78530 | 1583 ft | 123 kts | 124° |
| 2026-04-22 01:27 | -37.83057 | -57.77623 | 1648 ft | 125 kts | 118° |
| 2026-04-22 01:27 | -37.83518 | -57.76683 | 1777 ft | 127 kts | 126° |
| 2026-04-22 01:28 | -37.84002 | -57.75719 | 1772 ft | 130 kts | 122° |
| 2026-04-22 01:28 | -37.84486 | -57.74762 | 1765 ft | 131 kts | 126° |
| 2026-04-22 01:28 | -37.85019 | -57.73828 | 1709 ft | 127 kts | 124° |
| 2026-04-22 01:28 | -37.85485 | -57.72879 | 1739 ft | 127 kts | 122° |
| 2026-04-22 01:29 | -37.85943 | -57.71891 | 1753 ft | 131 kts | 119° |
| 2026-04-22 01:29 | -37.86367 | -57.70871 | 1810 ft | 133 kts | 120° |
| 2026-04-22 01:29 | -37.86950 | -57.69910 | 1810 ft | 139 kts | 127° |
| 2026-04-22 01:29 | -37.87512 | -57.68969 | 1753 ft | 132 kts | 121° |
| 2026-04-22 01:30 | -37.88025 | -57.68041 | 1700 ft | 127 kts | 122° |
| 2026-04-22 01:30 | -37.88509 | -57.67087 | 1520 ft | 131 kts | 121° |
| 2026-04-22 01:30 | -37.89008 | -57.66106 | 1369 ft | 135 kts | 118° |
| 2026-04-22 01:30 | -37.89506 | -57.65076 | 1190 ft | 137 kts | 118° |
| 2026-04-22 01:31 | -37.90007 | -57.64048 | 989 ft | 136 kts | 120° |
| 2026-04-22 01:31 | -37.90505 | -57.63034 | 816 ft | 134 kts | 121° |
| 2026-04-22 01:31 | -37.91028 | -57.62086 | 740 ft | 132 kts | 122° |
| 2026-04-22 01:31 | -37.91516 | -57.61096 | 673 ft | 131 kts | 119° |
| 2026-04-22 01:32 | -37.92013 | -57.60077 | 423 ft | 136 kts | 120° |
| 2026-04-22 01:32 | -37.92520 | -57.59088 | 223 ft | 135 kts | 120° |
| 2026-04-22 01:32 | -37.93018 | -57.58119 | 69 ft | 129 kts | 120° |
| 2026-04-22 01:32 | -37.93405 | -57.57341 | 55 ft | 72 kts | 125° |
| 2026-04-22 01:33 | -37.93649 | -57.56866 | 54 ft | 65 kts | 123° |
| 2026-04-22 01:33 | -37.93850 | -57.56480 | 54 ft | 38 kts | 124° |
| 2026-04-22 01:33 | -37.93992 | -57.56365 | 54 ft | 21 kts | 237° |
| 2026-04-22 01:33 | -37.94017 | -57.56536 | 54 ft | 20 kts | 294° |
| 2026-04-22 01:34 | -37.93964 | -57.56658 | 54 ft | 13 kts | 299° |
| 2026-04-22 01:34 | -37.93921 | -57.56758 | 54 ft | 12 kts | 301° |
| 2026-04-22 01:34 | -37.93877 | -57.56855 | 54 ft | 12 kts | 301° |
| 2026-04-22 01:34 | -37.93828 | -57.56966 | 54 ft | 21 kts | 299° |
| 2026-04-22 01:35 | -37.93731 | -57.57184 | 55 ft | 29 kts | 298° |
| 2026-04-22 01:35 | -37.93632 | -57.57407 | 58 ft | 28 kts | 300° |
| 2026-04-22 01:35 | -37.93537 | -57.57624 | 60 ft | 27 kts | 300° |
| 2026-04-22 01:35 | -37.93447 | -57.57825 | 61 ft | 21 kts | 299° |
| 2026-04-22 01:36 | -37.93392 | -57.57954 | 63 ft | 15 kts | 300° |
| 2026-04-22 01:36 | -37.93350 | -57.58027 | 64 ft | 8 kts | 315° |
| 2026-04-22 01:36 | -37.93321 | -57.58084 | 64 ft | 0 kts | 301° |